createdAt,value
2017-10-05T00:00:55.932Z,99314.17
2017-10-05T00:03:31.281Z,99317.44
2017-10-05T00:06:05.409Z,99271.92
2017-10-05T00:08:41.398Z,99309.10
2017-10-05T00:11:13.239Z,99287.11
2017-10-05T00:13:45.890Z,99295.53
2017-10-05T00:16:34.994Z,99270.68
2017-10-05T00:19:09.236Z,99291.45
2017-10-05T00:21:44.428Z,99227.27
2017-10-05T00:24:22.523Z,99243.00
2017-10-05T00:26:56.124Z,99281.88
2017-10-05T00:29:31.116Z,99226.73
2017-10-05T00:32:14.324Z,99294.75
2017-10-05T00:34:46.958Z,99287.23
2017-10-05T00:37:20.112Z,99294.64
2017-10-05T00:39:52.156Z,99286.28
2017-10-05T00:42:25.077Z,99285.42
2017-10-05T00:45:07.147Z,99205.20
2017-10-05T00:47:38.757Z,99256.48
2017-10-05T00:50:17.465Z,99250.44
2017-10-05T00:52:49.943Z,99232.27
2017-10-05T00:55:29.940Z,99241.68
2017-10-05T00:58:01.889Z,99217.36
2017-10-05T01:00:35.770Z,99230.66
2017-10-05T01:03:14.204Z,99201.50
2017-10-05T01:05:48.301Z,99162.60
2017-10-05T01:08:19.965Z,99175.92
2017-10-05T01:10:53.840Z,99170.64
2017-10-05T01:13:25.946Z,99173.48
2017-10-05T01:15:57.385Z,99157.67
2017-10-05T01:18:30.491Z,99101.57
2017-10-05T01:21:04.898Z,99080.28
2017-10-05T01:23:37.957Z,99074.64
2017-10-05T01:26:11.057Z,99092.77
2017-10-05T01:28:42.376Z,99045.89
2017-10-05T01:31:14.124Z,99088.86
2017-10-05T01:33:45.635Z,99069.80
2017-10-05T01:36:18.850Z,99114.87
2017-10-05T01:38:50.679Z,99105.42
2017-10-05T01:41:22.097Z,99085.74
2017-10-05T01:43:54.261Z,99065.60
2017-10-05T01:46:26.701Z,99075.91
2017-10-05T01:49:00.544Z,99058.23
2017-10-05T01:51:36.446Z,99020.11
2017-10-05T01:54:09.827Z,99044.75
2017-10-05T01:56:45.564Z,99052.36
2017-10-05T01:59:21.452Z,99112.67
2017-10-05T02:01:54.658Z,99074.09
2017-10-05T02:04:27.660Z,99072.91
2017-10-05T02:06:58.580Z,99059.98
2017-10-05T02:09:29.829Z,99051.89
2017-10-05T02:12:22.973Z,99038.73
2017-10-05T02:15:00.117Z,99031.78
2017-10-05T02:17:32.801Z,99043.08
2017-10-05T02:20:11.276Z,99020.91
2017-10-05T02:22:44.172Z,99029.50
2017-10-05T02:25:15.801Z,99029.14
2017-10-05T02:27:48.616Z,99030.31
2017-10-05T02:30:22.318Z,98803.76
2017-10-05T02:32:54.285Z,99004.69
2017-10-05T02:35:25.702Z,98999.29
2017-10-05T02:38:00.038Z,99002.55
2017-10-05T02:40:30.979Z,98983.49
2017-10-05T02:43:03.404Z,98989.84
2017-10-05T02:45:41.202Z,98917.83
2017-10-05T02:48:15.490Z,98985.38
2017-10-05T02:50:47.154Z,98975.53
2017-10-05T02:53:18.864Z,98979.98
2017-10-05T02:55:50.650Z,98968.80
2017-10-05T02:58:23.256Z,98966.66
2017-10-05T03:00:54.449Z,98970.87
2017-10-05T03:03:27.880Z,98927.39
2017-10-05T03:05:59.066Z,98962.77
2017-10-05T03:08:30.081Z,98905.70
2017-10-05T03:11:01.128Z,98955.02
2017-10-05T03:13:34.906Z,98939.39
2017-10-05T03:16:05.744Z,98922.81
2017-10-05T03:18:37.250Z,98926.57
2017-10-05T03:21:08.421Z,98912.97
2017-10-05T03:23:39.379Z,98900.61
2017-10-05T03:26:13.534Z,98899.45
2017-10-05T03:28:46.369Z,98858.14
2017-10-05T03:31:18.858Z,98902.45
2017-10-05T03:37:23.878Z,98864.33
2017-10-05T03:39:55.634Z,98860.05
2017-10-05T03:42:26.898Z,98824.83
2017-10-05T03:45:00.870Z,98841.52
2017-10-05T03:47:32.606Z,98789.22
2017-10-05T03:50:03.566Z,98817.19
2017-10-05T03:52:34.493Z,98834.20
2017-10-05T03:55:08.005Z,98822.80
2017-10-05T03:57:39.534Z,98807.77
2017-10-05T04:00:13.057Z,98785.89
2017-10-05T04:02:44.029Z,98791.58
2017-10-05T04:05:17.809Z,98793.89
2017-10-05T04:07:50.265Z,98764.12
2017-10-05T04:10:22.402Z,98711.70
2017-10-05T04:12:55.474Z,98752.64
2017-10-05T04:15:26.641Z,98757.08
2017-10-05T04:17:57.597Z,98758.59
2017-10-05T04:20:31.071Z,98680.91
2017-10-05T04:23:04.039Z,98667.36
2017-10-05T04:25:35.314Z,98735.61
2017-10-05T04:28:07.069Z,98722.13
2017-10-05T04:30:38.281Z,98713.64
2017-10-05T04:33:15.378Z,98681.12
2017-10-05T04:35:49.413Z,98704.94
2017-10-05T04:38:21.190Z,98736.52
2017-10-05T04:40:56.339Z,98709.94
2017-10-05T04:43:27.549Z,98701.28
2017-10-05T04:45:59.531Z,98651.22
2017-10-05T04:48:36.121Z,98634.38
2017-10-05T04:51:07.991Z,98678.33
2017-10-05T04:53:38.850Z,98652.80
2017-10-05T04:56:13.498Z,98668.11
2017-10-05T04:58:46.025Z,98664.63
2017-10-05T05:01:18.981Z,98645.69
2017-10-05T05:03:52.614Z,98652.44
2017-10-05T05:06:24.164Z,98662.49
2017-10-05T05:08:59.188Z,98665.67
2017-10-05T05:11:34.498Z,98630.56
2017-10-05T05:14:10.756Z,98636.82
2017-10-05T05:16:42.269Z,98635.47
2017-10-05T05:19:15.332Z,98630.86
2017-10-05T05:21:50.496Z,98551.34
2017-10-05T05:24:22.501Z,98626.59
2017-10-05T05:26:54.356Z,98577.44
2017-10-05T05:29:26.618Z,98608.45
2017-10-05T05:31:58.081Z,98579.89
2017-10-05T05:34:31.182Z,98595.19
2017-10-05T05:37:02.506Z,98569.16
2017-10-05T05:39:34.886Z,98582.66
2017-10-05T05:42:13.802Z,98540.58
2017-10-05T05:44:51.965Z,98507.55
2017-10-05T05:47:23.158Z,98534.45
2017-10-05T05:49:56.239Z,98511.95
2017-10-05T05:52:28.061Z,98550.47
2017-10-05T05:55:01.700Z,98543.66
2017-10-05T05:57:34.317Z,98549.28
2017-10-05T06:00:11.545Z,98570.90
2017-10-05T06:02:43.623Z,98534.09
2017-10-05T06:05:17.314Z,98530.22
2017-10-05T06:07:48.991Z,98525.22
2017-10-05T06:10:20.238Z,98528.09
2017-10-05T06:12:53.113Z,98437.52
2017-10-05T06:15:24.445Z,98521.91
2017-10-05T06:17:56.081Z,98511.07
2017-10-05T06:20:29.048Z,98482.11
2017-10-05T06:23:03.759Z,98525.12
2017-10-05T06:25:36.368Z,98505.91
2017-10-05T06:28:13.333Z,98478.77
2017-10-05T06:30:44.392Z,98467.20
2017-10-05T06:33:47.893Z,98324.41
2017-10-05T06:36:18.792Z,98455.41
2017-10-05T06:38:51.943Z,98460.70
2017-10-05T06:41:25.973Z,98346.50
2017-10-05T06:44:02.271Z,98452.84
2017-10-05T06:46:33.813Z,98435.75
2017-10-05T06:49:05.210Z,98427.66
2017-10-05T06:51:36.187Z,98432.27
2017-10-05T06:54:07.805Z,98401.39
2017-10-05T06:56:38.711Z,98416.05
2017-10-05T06:59:11.603Z,98418.22
2017-10-05T07:01:43.561Z,98418.59
2017-10-05T07:04:20.492Z,98421.64
2017-10-05T07:06:51.476Z,98411.81
2017-10-05T07:09:22.974Z,98409.06
2017-10-05T07:11:54.086Z,98398.28
2017-10-05T07:14:26.028Z,98394.98
2017-10-05T07:16:57.707Z,98387.84
2017-10-05T07:19:29.804Z,98332.64
2017-10-05T07:22:02.955Z,98366.48
2017-10-05T07:24:36.266Z,98361.09
2017-10-05T07:27:08.177Z,98351.82
2017-10-05T07:29:42.118Z,98333.06
2017-10-05T07:32:16.669Z,98372.61
2017-10-05T07:34:50.423Z,98332.78
2017-10-05T07:37:22.079Z,98322.16
2017-10-05T07:39:54.552Z,98323.52
2017-10-05T07:42:25.530Z,98313.30
2017-10-05T07:44:57.788Z,98284.47
2017-10-05T07:47:30.629Z,98312.12
2017-10-05T07:50:01.648Z,98299.98
2017-10-05T07:52:34.831Z,98296.50
2017-10-05T07:55:07.984Z,98293.20
2017-10-05T07:57:39.146Z,98292.02
2017-10-05T08:00:12.202Z,98307.45
2017-10-05T08:02:43.671Z,98307.91
2017-10-05T08:05:17.248Z,98253.09
2017-10-05T08:07:49.062Z,98288.07
2017-10-05T08:10:21.454Z,98278.73
2017-10-05T08:12:53.643Z,98277.68
2017-10-05T08:15:26.901Z,98284.81
2017-10-05T08:17:59.189Z,98244.28
2017-10-05T08:20:31.600Z,98277.85
2017-10-05T08:23:06.134Z,98249.28
2017-10-05T08:25:39.834Z,98246.45
2017-10-05T08:28:16.207Z,98236.38
2017-10-05T08:30:50.127Z,98273.55
2017-10-05T08:33:23.405Z,98264.67
2017-10-05T08:35:56.938Z,98254.46
2017-10-05T08:38:32.794Z,98275.46
2017-10-05T08:41:13.747Z,98255.64
2017-10-05T08:43:46.231Z,98266.81
2017-10-05T08:46:20.567Z,98261.03
2017-10-05T08:48:55.707Z,98264.49
2017-10-05T08:51:30.763Z,98250.06
2017-10-05T08:54:03.168Z,98255.81
2017-10-05T08:56:37.688Z,98262.09
2017-10-05T08:59:11.702Z,98214.75
2017-10-05T09:01:49.653Z,98211.33
2017-10-05T09:04:22.690Z,98207.45
2017-10-05T09:06:55.855Z,98221.36
2017-10-05T09:09:27.759Z,98240.23
2017-10-05T09:12:01.793Z,98205.94
2017-10-05T09:14:33.020Z,98198.02
2017-10-05T09:17:07.579Z,98194.34
2017-10-05T09:19:39.141Z,98207.28
2017-10-05T09:22:16.316Z,98215.02
2017-10-05T09:24:51.909Z,98210.02
2017-10-05T09:27:27.659Z,98213.67
2017-10-05T09:30:01.556Z,98210.98
2017-10-05T09:32:35.146Z,98188.41
2017-10-05T09:35:11.980Z,98184.58
2017-10-05T09:37:54.151Z,98164.34
2017-10-05T09:40:28.508Z,98176.71
2017-10-05T09:43:00.328Z,98155.08
2017-10-05T09:45:36.260Z,98162.80
2017-10-05T09:48:15.236Z,98163.02
2017-10-05T09:50:49.699Z,98154.15
2017-10-05T09:53:21.267Z,98162.06
2017-10-05T09:55:56.583Z,98139.92
2017-10-05T09:58:29.746Z,98117.19
2017-10-05T10:01:08.869Z,98114.14
2017-10-05T10:03:41.222Z,98104.91
2017-10-05T10:06:13.208Z,98121.91
2017-10-05T10:08:50.387Z,98104.18
2017-10-05T10:11:27.535Z,98150.02
2017-10-05T10:14:09.803Z,98129.83
2017-10-05T10:16:44.100Z,98117.73
2017-10-05T10:19:16.645Z,98130.65
2017-10-05T10:21:53.527Z,98114.47
2017-10-05T10:24:26.997Z,98079.03
2017-10-05T10:27:14.341Z,98091.57
2017-10-05T10:30:07.237Z,98111.22
2017-10-05T10:32:46.435Z,98098.69
2017-10-05T10:35:25.308Z,98083.85
2017-10-05T10:38:06.037Z,98036.87
2017-10-05T10:40:48.982Z,98003.09
2017-10-05T10:43:30.720Z,98068.85
2017-10-05T10:46:12.856Z,98035.95
2017-10-05T10:48:48.366Z,98073.64
2017-10-05T10:51:24.396Z,98050.53
2017-10-05T10:54:02.751Z,98075.87
2017-10-05T10:56:38.620Z,98051.52
2017-10-05T10:59:11.005Z,98070.94
2017-10-05T11:01:47.763Z,98052.45
2017-10-05T11:04:21.145Z,98049.77
2017-10-05T11:06:55.374Z,98052.45
2017-10-05T11:09:35.735Z,98067.67
2017-10-05T11:12:12.763Z,98035.14
2017-10-05T11:14:50.088Z,98035.92
2017-10-05T11:17:25.311Z,98072.11
2017-10-05T11:19:58.400Z,98031.09
2017-10-05T11:22:32.544Z,98002.40
2017-10-05T11:25:07.062Z,97947.54
2017-10-05T11:27:45.708Z,97990.63
2017-10-05T11:30:22.748Z,97928.50
2017-10-05T11:33:07.241Z,97978.09
2017-10-05T11:35:41.811Z,98013.75
2017-10-05T11:38:22.778Z,98023.19
2017-10-05T11:41:04.669Z,97977.71
2017-10-05T11:43:38.892Z,97980.23
2017-10-05T11:46:11.925Z,97982.18
2017-10-05T11:48:44.581Z,97973.31
2017-10-05T11:51:19.986Z,97966.39
2017-10-05T11:53:51.599Z,97975.83
2017-10-05T11:56:27.462Z,97971.78
2017-10-05T11:59:07.862Z,97940.39
2017-10-05T12:04:23.964Z,97916.93
2017-10-05T12:07:04.732Z,97928.50
2017-10-05T12:09:43.109Z,97921.76
2017-10-05T12:12:23.060Z,97893.70
2017-10-05T12:15:01.228Z,97936.02
2017-10-05T12:17:38.906Z,97945.84
2017-10-05T12:20:19.209Z,97965.29
2017-10-05T12:22:56.695Z,97966.06
2017-10-05T12:28:19.968Z,97991.69
2017-10-05T12:30:58.775Z,97965.34
2017-10-05T12:33:37.669Z,98030.61
2017-10-05T12:36:15.093Z,98027.91
2017-10-05T12:38:48.316Z,98046.03
2017-10-05T12:41:28.258Z,98045.83
2017-10-05T12:44:08.269Z,98013.86
2017-10-05T12:46:42.763Z,98002.30
2017-10-05T12:49:22.491Z,98009.42
2017-10-05T12:51:58.166Z,98022.52
2017-10-05T12:54:33.671Z,98009.99
2017-10-05T12:57:12.738Z,98002.86
2017-10-05T12:59:58.606Z,98031.00
2017-10-05T13:02:36.800Z,98029.08
2017-10-05T13:05:19.379Z,98060.88
2017-10-05T13:10:50.961Z,98058.56
2017-10-05T13:13:25.703Z,98068.39
2017-10-05T13:16:00.429Z,98070.34
2017-10-05T13:21:22.127Z,98090.19
2017-10-05T13:23:57.843Z,98096.17
2017-10-05T13:32:28.398Z,98084.44
2017-10-05T13:35:06.765Z,98111.80
2017-10-05T13:37:56.206Z,98113.92
2017-10-05T13:40:35.531Z,98142.67
2017-10-05T13:46:11.778Z,98155.94
2017-10-05T13:48:54.555Z,98122.07
2017-10-05T13:51:32.460Z,98040.04
2017-10-05T13:54:08.189Z,98163.50
2017-10-05T13:56:42.317Z,98229.97
2017-10-05T13:59:15.712Z,98200.30
2017-10-05T14:01:50.145Z,98218.98
2017-10-05T14:04:29.177Z,98254.04
2017-10-05T14:07:10.794Z,98253.25
2017-10-05T14:10:21.055Z,98261.95
2017-10-05T14:13:00.468Z,98280.05
2017-10-05T14:18:27.296Z,98297.41
2017-10-05T14:21:11.335Z,98305.89
2017-10-05T14:23:51.805Z,98315.12
2017-10-05T14:26:33.571Z,98386.77
2017-10-05T14:29:13.682Z,98328.61
2017-10-05T14:32:02.355Z,98339.56
2017-10-05T14:37:30.317Z,98348.82
2017-10-05T14:40:14.582Z,98377.53
2017-10-05T14:43:03.182Z,98385.98
2017-10-05T14:45:43.526Z,98383.84
2017-10-05T14:48:27.476Z,98380.36
2017-10-05T14:51:04.833Z,98402.51
2017-10-05T14:56:26.665Z,98392.45
2017-10-05T14:59:12.038Z,98417.69
2017-10-05T15:01:50.365Z,98418.25
2017-10-05T15:07:24.098Z,98458.93
2017-10-05T15:10:05.485Z,98458.14
2017-10-05T15:12:50.415Z,98452.19
2017-10-05T15:15:39.028Z,98461.23
2017-10-05T15:18:25.129Z,98466.84
2017-10-05T15:21:13.722Z,98490.55
2017-10-05T15:23:52.300Z,98490.16
2017-10-05T15:26:37.692Z,98504.22
2017-10-05T15:29:20.080Z,98479.45
2017-10-05T15:32:02.257Z,98501.08
2017-10-05T15:34:45.539Z,98537.36
2017-10-05T15:45:34.976Z,98603.82
2017-10-05T15:48:22.446Z,98580.19
2017-10-05T15:51:04.778Z,98584.80
2017-10-05T15:53:53.506Z,98593.67
2017-10-05T16:05:40.828Z,98610.47
2017-10-05T16:08:32.100Z,98617.64
2017-10-05T16:11:23.950Z,98623.66
2017-10-05T16:14:05.191Z,98625.77
2017-10-05T16:16:50.139Z,98637.31
2017-10-05T16:19:38.172Z,98633.44
2017-10-05T16:22:21.331Z,98667.78
2017-10-05T16:32:19.431Z,98623.06
2017-10-05T16:35:31.752Z,98652.75
2017-10-05T16:41:37.238Z,98660.81
2017-10-05T16:49:31.898Z,98716.57
2017-10-05T16:57:18.828Z,98665.31
2017-10-05T17:00:21.847Z,98715.81
2017-10-05T17:09:33.260Z,98760.92
2017-10-05T17:12:14.259Z,98760.67
2017-10-05T17:14:49.481Z,98754.27
2017-10-05T17:17:25.070Z,98726.23
2017-10-05T17:20:09.608Z,98765.84
2017-10-05T17:22:42.928Z,98767.19
2017-10-05T17:25:26.444Z,98702.66
2017-10-05T17:28:18.084Z,98764.05
2017-10-05T17:30:58.111Z,98743.49
2017-10-05T17:33:38.604Z,98768.26
2017-10-05T17:36:13.301Z,98728.87
2017-10-05T17:38:57.904Z,98798.68
2017-10-05T17:41:51.577Z,98770.73
2017-10-05T17:44:33.840Z,98722.41
2017-10-05T17:47:36.960Z,98773.78
2017-10-05T17:56:30.656Z,98821.03
2017-10-05T17:59:09.267Z,98774.32
2017-10-05T18:01:46.929Z,98771.91
2017-10-05T18:04:29.950Z,98774.97
2017-10-05T18:07:11.894Z,98772.05
2017-10-05T18:09:53.441Z,98772.84
2017-10-05T18:12:32.938Z,98778.96
2017-10-05T18:15:21.896Z,98774.86
2017-10-05T18:18:13.799Z,98785.88
2017-10-05T18:20:50.251Z,98768.55
2017-10-05T18:23:35.383Z,98793.52
2017-10-05T18:26:13.979Z,98800.81
2017-10-05T18:28:50.196Z,98799.86
2017-10-05T18:31:28.772Z,98807.95
2017-10-05T18:39:45.641Z,98819.49
2017-10-05T18:45:29.252Z,98825.05
2017-10-05T18:48:26.022Z,98871.84
2017-10-05T18:53:51.788Z,98836.73
2017-10-05T18:56:34.080Z,98841.34
2017-10-05T18:59:12.235Z,98849.42
2017-10-05T19:04:55.447Z,98852.52
2017-10-05T19:10:39.929Z,98856.73
2017-10-05T19:16:18.257Z,98857.03
2017-10-05T19:19:32.129Z,98849.72
2017-10-05T19:26:31.059Z,98823.77
2017-10-05T19:29:07.885Z,98923.22
2017-10-05T19:31:44.185Z,98871.69
2017-10-05T19:34:19.120Z,98879.39
2017-10-05T19:36:55.035Z,98895.53
2017-10-05T19:39:36.185Z,98903.00
2017-10-05T19:42:15.235Z,98905.86
2017-10-05T19:44:58.262Z,98843.71
2017-10-05T19:47:37.918Z,98860.75
2017-10-05T19:50:19.232Z,98914.68
2017-10-05T19:52:55.539Z,98908.50
2017-10-05T19:55:30.874Z,98913.70
2017-10-05T20:01:07.595Z,98929.88
2017-10-05T20:03:45.553Z,98926.02
2017-10-05T20:06:21.752Z,98895.98
2017-10-05T20:09:06.319Z,98929.90
2017-10-05T20:11:53.077Z,98934.90
2017-10-05T20:14:44.127Z,98938.32
2017-10-05T20:17:30.270Z,98922.95
2017-10-05T20:20:18.618Z,98941.94
2017-10-05T20:23:10.965Z,98933.70
2017-10-05T20:25:57.163Z,98947.50
2017-10-05T20:28:44.523Z,98958.28
2017-10-05T20:31:38.077Z,98957.49
2017-10-05T20:37:02.761Z,98939.82
2017-10-05T20:39:37.127Z,98954.41
2017-10-05T20:45:26.292Z,98961.30
2017-10-05T20:48:08.138Z,98949.81
2017-10-05T20:50:45.107Z,98968.97
2017-10-05T20:53:31.557Z,98971.83
2017-10-05T20:56:10.878Z,98968.18
2017-10-05T20:58:51.907Z,98952.61
2017-10-05T21:01:35.122Z,98994.34
2017-10-05T21:04:17.620Z,98967.00
2017-10-05T21:09:43.667Z,98976.99
2017-10-05T21:12:26.672Z,98966.05
2017-10-05T21:15:15.646Z,98967.01
2017-10-05T21:20:56.117Z,98986.59
2017-10-05T21:23:44.542Z,98967.17
2017-10-05T21:26:42.809Z,98980.18
2017-10-05T21:29:26.145Z,98992.31
2017-10-05T21:32:18.347Z,98993.27
2017-10-05T21:35:05.307Z,98975.98
2017-10-05T21:37:45.709Z,99001.35
2017-10-05T21:40:26.789Z,99001.52
2017-10-05T21:43:11.783Z,98973.13
2017-10-05T21:46:00.188Z,99028.53
2017-10-05T21:50:47.492Z,99010.39
2017-10-05T21:53:26.462Z,99014.59
2017-10-05T21:56:07.227Z,99001.81
2017-10-05T21:58:52.239Z,99003.16
2017-10-05T22:01:38.353Z,98997.55
2017-10-05T22:04:22.210Z,99004.28
2017-10-05T22:06:59.839Z,99009.67
2017-10-05T22:09:50.268Z,99002.53
2017-10-05T22:12:34.569Z,99011.02
2017-10-05T22:15:13.700Z,99005.76
2017-10-05T22:17:50.298Z,98991.83
2017-10-05T22:20:38.851Z,99002.87
2017-10-05T22:23:17.941Z,98972.63
2017-10-05T22:25:57.226Z,99003.00
2017-10-05T22:28:45.759Z,98994.19
2017-10-05T22:31:25.298Z,99004.02
2017-10-05T22:36:41.864Z,98983.28
2017-10-05T22:39:18.562Z,99000.73
2017-10-05T22:42:03.584Z,98997.88
2017-10-05T22:47:50.773Z,98970.92
2017-10-05T22:50:31.900Z,98979.77
2017-10-05T22:53:10.276Z,99004.73
2017-10-05T22:58:40.468Z,98995.41
2017-10-05T23:01:20.836Z,98967.08
2017-10-05T23:04:09.125Z,98982.06
2017-10-05T23:06:56.209Z,98965.73
2017-10-05T23:12:27.910Z,99001.32
2017-10-05T23:15:13.006Z,98989.78
2017-10-05T23:17:56.669Z,99006.88
2017-10-05T23:20:36.055Z,98943.69
2017-10-05T23:23:14.437Z,98969.58
2017-10-05T23:25:57.705Z,99005.13
2017-10-05T23:28:42.178Z,98947.72
2017-10-05T23:31:15.241Z,99003.39
2017-10-05T23:33:48.576Z,98997.38
2017-10-05T23:36:27.379Z,98964.94
2017-10-05T23:39:02.514Z,98981.89
2017-10-05T23:41:42.887Z,98999.67
2017-10-05T23:44:15.134Z,99004.91
2017-10-05T23:46:55.890Z,99001.64
2017-10-05T23:49:39.780Z,98981.50
2017-10-05T23:52:11.381Z,99006.41
2017-10-05T23:54:43.946Z,99010.06
2017-10-05T23:57:16.263Z,99016.41
2017-10-05T23:59:55.403Z,98944.14
